createdAt,value
2017-06-17T00:00:09.143Z,2.60
2017-06-17T00:02:37.202Z,3.93
2017-06-17T00:05:05.279Z,2.83
2017-06-17T00:07:33.355Z,4.90
2017-06-17T00:10:01.429Z,4.03
2017-06-17T00:12:29.494Z,4.23
2017-06-17T00:14:57.583Z,5.13
2017-06-17T00:17:25.660Z,4.57
2017-06-17T00:19:53.731Z,4.30
2017-06-17T00:22:21.812Z,3.80
2017-06-17T00:24:49.871Z,2.77
2017-06-17T00:27:17.948Z,3.50
2017-06-17T00:29:46.019Z,4.60
2017-06-17T00:32:14.115Z,3.67
2017-06-17T00:34:42.942Z,4.13
2017-06-17T00:37:11.020Z,3.03
2017-06-17T00:39:39.092Z,3.13
2017-06-17T00:42:07.164Z,5.27
2017-06-17T00:44:35.244Z,3.00
2017-06-17T00:47:03.301Z,3.67
2017-06-17T00:49:31.374Z,3.17
2017-06-17T00:51:59.447Z,3.83
2017-06-17T00:54:27.523Z,3.70
2017-06-17T00:56:55.590Z,4.10
2017-06-17T00:59:23.672Z,3.30
2017-06-17T01:01:51.739Z,2.50
2017-06-17T01:04:19.811Z,2.60
2017-06-17T01:06:47.882Z,3.70
2017-06-17T01:09:15.954Z,4.07
2017-06-17T01:11:44.027Z,2.50
2017-06-17T01:14:12.099Z,5.10
2017-06-17T01:16:40.171Z,5.57
2017-06-17T01:19:08.242Z,2.57
2017-06-17T01:21:36.320Z,2.77
2017-06-17T01:24:04.402Z,3.80
2017-06-17T01:26:32.483Z,4.53
2017-06-17T01:29:00.555Z,6.70
2017-06-17T01:31:28.627Z,6.20
2017-06-17T01:33:56.704Z,3.30
2017-06-17T01:36:24.790Z,4.33
2017-06-17T01:38:52.846Z,7.70
2017-06-17T01:41:20.919Z,6.93
2017-06-17T01:43:48.996Z,4.37
2017-06-17T01:46:17.059Z,9.20
2017-06-17T01:48:45.139Z,6.60
2017-06-17T01:51:13.207Z,9.03
2017-06-17T01:53:41.279Z,8.37
2017-06-17T01:56:09.349Z,5.60
2017-06-17T01:58:37.432Z,4.90
2017-06-17T02:01:05.490Z,4.07
2017-06-17T02:03:33.587Z,11.03
2017-06-17T02:06:01.655Z,5.23
2017-06-17T02:08:29.731Z,2.80
2017-06-17T02:10:57.803Z,4.60
2017-06-17T02:13:25.870Z,4.50
2017-06-17T02:15:53.947Z,3.40
2017-06-17T02:18:22.014Z,5.07
2017-06-17T02:20:50.092Z,3.63
2017-06-17T02:23:18.167Z,6.03
2017-06-17T02:25:46.248Z,4.03
2017-06-17T02:28:14.318Z,3.83
2017-06-17T02:30:42.411Z,4.50
2017-06-17T02:33:11.242Z,6.97
2017-06-17T02:35:39.306Z,5.37
2017-06-17T02:38:07.383Z,3.70
2017-06-17T02:40:35.454Z,4.20
2017-06-17T02:43:03.532Z,8.83
2017-06-17T02:45:31.608Z,4.20
2017-06-17T02:47:59.687Z,4.30
2017-06-17T02:50:27.760Z,3.40
2017-06-17T02:52:55.840Z,6.67
2017-06-17T02:55:23.903Z,3.37
2017-06-17T02:57:51.990Z,3.10
2017-06-17T03:00:20.066Z,2.73
2017-06-17T03:02:48.139Z,6.40
2017-06-17T03:05:16.211Z,6.47
2017-06-17T03:07:44.296Z,6.30
2017-06-17T03:10:12.367Z,4.33
2017-06-17T03:12:40.439Z,4.63
2017-06-17T03:15:09.293Z,3.60
2017-06-17T03:17:37.358Z,4.50
2017-06-17T03:20:05.434Z,5.73
2017-06-17T03:22:33.507Z,4.37
2017-06-17T03:25:01.598Z,3.43
2017-06-17T03:27:29.667Z,4.77
2017-06-17T03:29:57.739Z,7.90
2017-06-17T03:32:25.815Z,4.10
2017-06-17T03:34:53.882Z,4.30
2017-06-17T03:37:21.964Z,3.90
2017-06-17T03:39:50.030Z,3.53
2017-06-17T03:42:18.107Z,7.47
2017-06-17T03:44:46.180Z,6.40
2017-06-17T03:47:14.259Z,4.57
2017-06-17T03:49:42.327Z,5.87
2017-06-17T03:52:10.404Z,6.00
2017-06-17T03:54:38.478Z,4.50
2017-06-17T03:57:06.552Z,7.90
2017-06-17T03:59:34.618Z,4.93
2017-06-17T04:02:02.678Z,4.30
2017-06-17T04:04:30.751Z,4.50
2017-06-17T04:06:58.819Z,3.97
2017-06-17T04:09:26.925Z,3.47
2017-06-17T04:11:54.983Z,6.60
2017-06-17T04:14:23.071Z,6.30
2017-06-17T04:16:51.139Z,4.40
2017-06-17T04:19:19.198Z,4.40
2017-06-17T04:21:47.271Z,4.33
2017-06-17T04:24:15.354Z,7.13
2017-06-17T04:26:43.431Z,5.03
2017-06-17T04:29:12.271Z,5.10
2017-06-17T04:31:40.347Z,8.83
2017-06-17T04:34:08.415Z,4.23
2017-06-17T04:36:36.515Z,5.73
2017-06-17T04:39:04.578Z,8.70
2017-06-17T04:41:32.651Z,3.53
2017-06-17T04:44:00.743Z,3.50
2017-06-17T04:46:28.816Z,7.77
2017-06-17T04:48:56.887Z,4.73
2017-06-17T04:51:24.959Z,6.20
2017-06-17T04:53:53.035Z,4.87
2017-06-17T04:56:21.107Z,3.37
2017-06-17T04:58:49.174Z,5.73
2017-06-17T05:01:17.251Z,8.23
2017-06-17T05:03:45.340Z,4.00
2017-06-17T05:06:14.170Z,7.07
2017-06-17T05:08:42.247Z,5.27
2017-06-17T05:11:10.319Z,6.67
2017-06-17T05:13:38.401Z,4.23
2017-06-17T05:16:06.479Z,4.10
2017-06-17T05:18:34.546Z,3.93
2017-06-17T05:21:02.630Z,6.00
2017-06-17T05:23:30.700Z,5.77
2017-06-17T05:25:58.774Z,6.10
2017-06-17T05:28:26.846Z,5.77
2017-06-17T05:30:54.939Z,5.73
2017-06-17T05:33:23.008Z,7.53
2017-06-17T05:35:51.083Z,9.57
2017-06-17T05:38:19.154Z,4.43
2017-06-17T05:40:47.227Z,4.27
2017-06-17T05:43:15.307Z,4.00
2017-06-17T05:45:43.369Z,6.03
2017-06-17T05:48:11.443Z,5.07
2017-06-17T05:50:39.520Z,5.07
2017-06-17T05:53:07.588Z,9.77
2017-06-17T05:55:35.664Z,5.47
2017-06-17T05:58:03.753Z,5.90
2017-06-17T06:00:32.586Z,6.77
2017-06-17T06:03:00.642Z,4.90
2017-06-17T06:05:28.728Z,5.30
2017-06-17T06:07:56.813Z,5.23
2017-06-17T06:10:24.887Z,6.47
2017-06-17T06:12:52.960Z,5.93
2017-06-17T06:15:21.067Z,9.40
2017-06-17T06:17:49.126Z,5.30
2017-06-17T06:20:17.199Z,6.93
2017-06-17T06:22:45.266Z,5.63
2017-06-17T06:25:13.363Z,6.80
2017-06-17T06:27:42.204Z,5.07
2017-06-17T06:30:10.291Z,4.57
2017-06-17T06:32:38.382Z,4.13
2017-06-17T06:35:06.482Z,6.37
2017-06-17T06:37:35.326Z,5.87
2017-06-17T06:40:03.399Z,4.23
2017-06-17T06:42:31.474Z,7.77
2017-06-17T06:44:59.549Z,4.20
2017-06-17T06:47:27.635Z,4.17
2017-06-17T06:49:55.703Z,4.93
2017-06-17T06:52:23.787Z,5.00
2017-06-17T06:54:51.863Z,4.30
2017-06-17T06:57:19.931Z,5.13
2017-06-17T06:59:47.998Z,2.87
2017-06-17T07:02:16.080Z,4.87
2017-06-17T07:04:44.158Z,5.07
2017-06-17T07:07:13.011Z,5.43
2017-06-17T07:09:41.112Z,8.53
2017-06-17T07:12:09.180Z,5.10
2017-06-17T07:14:37.250Z,3.70
2017-06-17T07:17:05.336Z,5.87
2017-06-17T07:19:34.183Z,5.00
2017-06-17T07:22:02.259Z,3.70
2017-06-17T07:24:30.339Z,3.03
2017-06-17T07:26:58.431Z,3.60
2017-06-17T07:29:26.504Z,5.27
2017-06-17T07:31:54.576Z,3.10
2017-06-17T07:34:22.647Z,4.87
2017-06-17T07:36:50.712Z,3.03
2017-06-17T07:39:18.802Z,2.93
2017-06-17T07:41:46.862Z,2.20
2017-06-17T07:44:14.938Z,3.10
2017-06-17T07:46:43.015Z,3.73
2017-06-17T07:49:11.104Z,2.50
2017-06-17T07:51:39.934Z,5.50
2017-06-17T07:54:08.674Z,2.73
2017-06-17T07:56:36.744Z,4.73
2017-06-17T07:59:04.807Z,3.53
2017-06-17T08:01:32.886Z,3.10
2017-06-17T08:04:00.946Z,2.33
2017-06-17T08:06:29.120Z,2.73
2017-06-17T08:08:57.184Z,2.30
2017-06-17T08:11:25.286Z,3.67
2017-06-17T08:13:54.125Z,3.60
2017-06-17T08:16:22.195Z,4.23
2017-06-17T08:18:50.271Z,2.20
2017-06-17T08:21:18.391Z,4.20
2017-06-17T08:23:47.231Z,3.23
2017-06-17T08:26:15.299Z,3.37
2017-06-17T08:28:43.374Z,2.73
2017-06-17T08:31:11.511Z,5.20
2017-06-17T08:33:39.587Z,3.00
2017-06-17T08:36:08.423Z,3.20
2017-06-17T08:38:36.511Z,2.90
2017-06-17T08:41:04.584Z,3.20
2017-06-17T08:43:32.655Z,3.30
2017-06-17T08:46:00.731Z,3.03
2017-06-17T08:48:28.842Z,2.60
2017-06-17T08:50:56.919Z,2.50
2017-06-17T08:53:24.982Z,2.37
2017-06-17T08:55:53.831Z,3.03
2017-06-17T08:58:21.903Z,2.33
2017-06-17T09:00:49.975Z,2.37
2017-06-17T09:03:18.051Z,3.00
2017-06-17T09:05:46.122Z,2.50
2017-06-17T09:08:14.195Z,4.47
2017-06-17T09:10:42.291Z,4.17
2017-06-17T09:13:10.363Z,4.70
2017-06-17T09:15:38.429Z,3.00
2017-06-17T09:18:06.503Z,7.87
2017-06-17T09:20:34.576Z,2.87
2017-06-17T09:23:02.655Z,2.63
2017-06-17T09:25:30.721Z,4.07
2017-06-17T09:27:58.796Z,2.67
2017-06-17T09:30:26.870Z,3.50
2017-06-17T09:32:54.947Z,2.27
2017-06-17T09:35:23.017Z,2.30
2017-06-17T09:37:51.097Z,4.00
2017-06-17T09:40:19.173Z,3.67
2017-06-17T09:42:48.027Z,5.00
2017-06-17T09:45:16.094Z,2.37
2017-06-17T09:47:44.182Z,2.40
2017-06-17T09:50:12.256Z,3.03
2017-06-17T09:52:40.318Z,3.47
2017-06-17T09:55:08.402Z,4.40
2017-06-17T09:57:36.475Z,3.00
2017-06-17T10:00:04.542Z,6.80
2017-06-17T10:02:32.607Z,2.97
2017-06-17T10:05:00.691Z,4.23
2017-06-17T10:07:28.776Z,6.30
2017-06-17T10:09:56.838Z,3.00
2017-06-17T10:12:24.914Z,2.43
2017-06-17T10:14:52.985Z,7.60
2017-06-17T10:17:21.076Z,2.80
2017-06-17T10:19:49.907Z,4.17
2017-06-17T10:22:17.991Z,3.33
2017-06-17T10:24:46.054Z,4.43
2017-06-17T10:27:14.120Z,7.10
2017-06-17T10:29:42.194Z,2.73
2017-06-17T10:32:10.266Z,3.30
2017-06-17T10:34:38.365Z,3.40
2017-06-17T10:37:06.443Z,3.20
2017-06-17T10:39:34.507Z,3.90
2017-06-17T10:42:02.582Z,5.40
2017-06-17T10:44:30.655Z,3.67
2017-06-17T10:46:58.738Z,4.87
2017-06-17T10:49:27.184Z,8.67
2017-06-17T10:51:55.253Z,2.73
2017-06-17T10:54:23.331Z,2.40
2017-06-17T10:56:51.403Z,4.07
2017-06-17T10:59:19.475Z,4.80
2017-06-17T11:01:47.547Z,2.53
2017-06-17T11:04:15.644Z,5.57
2017-06-17T11:06:43.710Z,2.87
2017-06-17T11:09:11.783Z,5.70
2017-06-17T11:11:39.864Z,2.90
2017-06-17T11:14:07.927Z,3.57
2017-06-17T11:16:36.003Z,4.60
2017-06-17T11:19:04.074Z,5.27
2017-06-17T11:21:32.163Z,2.63
2017-06-17T11:24:00.249Z,3.50
2017-06-17T11:26:29.112Z,4.63
2017-06-17T11:28:57.175Z,6.10
2017-06-17T11:31:25.247Z,4.63
2017-06-17T11:33:53.323Z,2.50
2017-06-17T11:36:21.390Z,3.37
2017-06-17T11:38:49.470Z,5.07
2017-06-17T11:41:17.623Z,3.03
2017-06-17T11:43:45.695Z,3.20
2017-06-17T11:46:13.771Z,2.67
2017-06-17T11:48:41.843Z,3.87
2017-06-17T11:51:09.915Z,2.20
2017-06-17T11:53:38.038Z,4.97
2017-06-17T11:56:06.887Z,2.40
2017-06-17T11:58:34.951Z,4.87
2017-06-17T12:01:03.023Z,6.40
2017-06-17T12:03:31.099Z,2.53
2017-06-17T12:05:59.178Z,5.00
2017-06-17T12:08:27.239Z,2.40
2017-06-17T12:10:55.312Z,4.00
2017-06-17T12:13:23.383Z,4.27
2017-06-17T12:15:51.471Z,2.00
2017-06-17T12:18:19.539Z,2.50
2017-06-17T12:20:47.626Z,2.63
2017-06-17T12:23:15.695Z,2.57
2017-06-17T12:25:43.767Z,4.73
2017-06-17T12:28:11.838Z,2.10
2017-06-17T12:30:39.912Z,4.03
2017-06-17T12:33:07.983Z,2.07
2017-06-17T12:35:36.056Z,2.03
2017-06-17T12:38:04.146Z,1.93
2017-06-17T12:40:32.230Z,2.13
2017-06-17T12:43:00.303Z,4.90
2017-06-17T12:45:29.143Z,4.63
2017-06-17T12:47:57.238Z,3.03
2017-06-17T12:50:25.307Z,2.20
2017-06-17T12:52:53.388Z,2.00
2017-06-17T12:55:21.456Z,3.80
2017-06-17T12:57:49.531Z,1.97
2017-06-17T13:00:17.603Z,4.17
2017-06-17T13:02:45.672Z,1.90
2017-06-17T13:05:14.559Z,2.23
2017-06-17T13:07:42.635Z,4.87
2017-06-17T13:10:10.716Z,1.93
2017-06-17T13:12:38.798Z,2.40
2017-06-17T13:15:06.883Z,1.40
2017-06-17T13:17:34.955Z,1.50
2017-06-17T13:20:03.010Z,2.20
2017-06-17T13:22:31.095Z,2.27
2017-06-17T13:24:59.154Z,1.60
2017-06-17T13:27:27.231Z,1.83
2017-06-17T13:29:55.331Z,2.00
2017-06-17T13:32:23.399Z,4.20
2017-06-17T13:34:52.230Z,1.83
2017-06-17T13:37:20.351Z,2.60
2017-06-17T13:39:48.410Z,2.20
2017-06-17T13:42:16.522Z,2.53
2017-06-17T13:44:44.591Z,1.70
2017-06-17T13:47:12.681Z,1.80
2017-06-17T13:49:40.750Z,2.30
2017-06-17T13:52:08.816Z,2.00
2017-06-17T13:54:36.891Z,2.13
2017-06-17T13:57:04.977Z,1.40
2017-06-17T13:59:33.062Z,1.60
2017-06-17T14:02:01.125Z,2.60
2017-06-17T14:04:29.195Z,2.33
2017-06-17T14:06:57.272Z,2.40
2017-06-17T14:09:25.340Z,1.57
2017-06-17T14:11:53.419Z,2.37
2017-06-17T14:14:21.487Z,4.40
2017-06-17T14:16:49.560Z,2.03
2017-06-17T14:19:17.630Z,2.63
2017-06-17T14:21:51.199Z,2.90
2017-06-17T14:24:19.267Z,2.27
2017-06-17T14:26:48.102Z,2.50
2017-06-17T14:29:16.192Z,1.80
2017-06-17T14:31:44.263Z,1.80
2017-06-17T14:34:12.338Z,2.03
2017-06-17T14:36:40.436Z,3.17
2017-06-17T14:39:08.507Z,2.67
2017-06-17T14:41:36.571Z,3.67
2017-06-17T14:44:04.655Z,2.53
2017-06-17T14:46:33.491Z,2.90
2017-06-17T14:49:01.566Z,2.57
2017-06-17T14:51:29.654Z,2.93
2017-06-17T14:53:57.715Z,4.00
2017-06-17T14:56:25.800Z,3.50
2017-06-17T14:58:53.863Z,3.97
2017-06-17T15:01:21.951Z,3.27
2017-06-17T15:03:50.021Z,3.43
2017-06-17T15:06:18.091Z,3.93
2017-06-17T15:08:46.170Z,3.87
2017-06-17T15:11:14.286Z,3.67
2017-06-17T15:13:42.355Z,3.30
2017-06-17T15:16:11.195Z,4.47
2017-06-17T15:18:39.275Z,4.93
2017-06-17T15:21:07.347Z,4.40
2017-06-17T15:23:35.421Z,4.87
2017-06-17T15:26:03.490Z,4.57
2017-06-17T15:28:31.591Z,4.60
2017-06-17T15:30:59.669Z,4.20
2017-06-17T15:33:28.502Z,5.33
2017-06-17T15:35:56.577Z,5.63
2017-06-17T15:38:24.655Z,4.40
2017-06-17T15:40:52.730Z,4.80
2017-06-17T15:43:20.798Z,4.97
2017-06-17T15:45:48.924Z,6.00
2017-06-17T15:48:17.762Z,5.57
2017-06-17T15:50:45.843Z,4.53
2017-06-17T15:53:13.906Z,5.70
2017-06-17T15:55:42.004Z,5.83
2017-06-17T15:58:10.071Z,7.33
2017-06-17T16:00:38.143Z,5.83
2017-06-17T16:03:06.215Z,6.17
2017-06-17T16:05:34.290Z,7.10
2017-06-17T16:08:02.365Z,6.13
2017-06-17T16:10:30.459Z,7.20
2017-06-17T16:12:58.530Z,7.90
2017-06-17T16:15:26.603Z,10.40
2017-06-17T16:17:54.675Z,5.23
2017-06-17T16:20:22.752Z,6.00
2017-06-17T16:22:50.831Z,5.40
2017-06-17T16:25:19.670Z,5.67
2017-06-17T16:27:47.746Z,5.17
2017-06-17T16:30:15.826Z,6.60
2017-06-17T16:32:43.898Z,5.30
2017-06-17T16:35:11.987Z,6.83
2017-06-17T16:37:40.054Z,8.80
2017-06-17T16:40:08.136Z,9.17
2017-06-17T16:42:36.207Z,7.50
2017-06-17T16:45:04.292Z,8.83
2017-06-17T16:47:32.363Z,7.93
2017-06-17T16:50:00.430Z,7.37
2017-06-17T16:52:28.506Z,7.50
2017-06-17T16:54:56.570Z,7.97
2017-06-17T16:57:24.655Z,9.50
2017-06-17T16:59:52.726Z,8.53
2017-06-17T17:02:20.800Z,9.23
2017-06-17T17:04:49.641Z,9.87
2017-06-17T17:07:17.723Z,11.20
2017-06-17T17:09:45.794Z,8.63
2017-06-17T17:12:13.879Z,8.90
2017-06-17T17:14:41.953Z,9.40
2017-06-17T17:17:10.027Z,8.23
2017-06-17T17:19:38.119Z,10.20
2017-06-17T17:22:06.183Z,9.30
2017-06-17T17:24:34.254Z,9.87
2017-06-17T17:27:02.328Z,11.73
2017-06-17T17:29:30.422Z,11.20
2017-06-17T17:31:59.260Z,10.27
2017-06-17T17:34:27.338Z,11.63
2017-06-17T17:36:55.439Z,9.23
2017-06-17T17:39:23.518Z,12.70
2017-06-17T17:41:51.595Z,13.40
2017-06-17T17:44:19.655Z,8.80
2017-06-17T17:46:47.740Z,9.70
2017-06-17T17:49:15.802Z,8.67
2017-06-17T17:51:43.870Z,7.97
2017-06-17T17:54:11.942Z,9.63
2017-06-17T17:56:40.029Z,16.73
2017-06-17T17:59:08.112Z,10.00
2017-06-17T18:01:36.179Z,9.97
2017-06-17T18:04:04.245Z,9.83
2017-06-17T18:06:32.316Z,11.20
2017-06-17T18:09:00.388Z,10.17
2017-06-17T18:11:28.451Z,12.20
2017-06-17T18:13:56.535Z,7.93
2017-06-17T18:16:24.599Z,7.83
2017-06-17T18:18:52.675Z,8.80
2017-06-17T18:21:20.735Z,9.43
2017-06-17T18:23:48.832Z,9.63
2017-06-17T18:26:16.906Z,12.10
2017-06-17T18:28:45.740Z,11.73
2017-06-17T18:31:13.818Z,12.50
2017-06-17T18:33:41.895Z,10.60
2017-06-17T18:36:09.979Z,11.43
2017-06-17T18:38:38.052Z,9.90
2017-06-17T18:41:06.123Z,9.90
2017-06-17T18:43:34.194Z,9.30
2017-06-17T18:46:02.267Z,10.33
2017-06-17T18:48:30.339Z,11.67
2017-06-17T18:50:58.435Z,15.07
2017-06-17T18:53:26.513Z,13.70
2017-06-17T18:55:54.591Z,12.57
2017-06-17T18:58:23.447Z,9.83
2017-06-17T19:00:51.525Z,10.90
2017-06-17T19:03:19.595Z,8.43
2017-06-17T19:05:47.662Z,8.07
2017-06-17T19:08:15.735Z,9.40
2017-06-17T19:10:43.810Z,11.00
2017-06-17T19:13:11.888Z,10.40
2017-06-17T19:15:39.962Z,13.20
2017-06-17T19:18:08.079Z,9.30
2017-06-17T19:20:36.154Z,12.53
2017-06-17T19:23:04.227Z,12.43
2017-06-17T19:25:32.314Z,16.30
2017-06-17T19:28:00.398Z,11.70
2017-06-17T19:30:28.470Z,13.00
2017-06-17T19:32:56.539Z,10.77
2017-06-17T19:35:24.617Z,8.40
2017-06-17T19:37:52.707Z,9.13
2017-06-17T19:40:20.799Z,11.20
2017-06-17T19:42:48.871Z,8.50
2017-06-17T19:45:16.960Z,11.37
2017-06-17T19:47:45.042Z,12.10
2017-06-17T19:50:13.886Z,9.20
2017-06-17T19:52:41.959Z,9.50
2017-06-17T19:55:10.031Z,10.07
2017-06-17T19:57:38.107Z,11.97
2017-06-17T20:00:06.179Z,21.20
2017-06-17T20:02:34.266Z,10.23
2017-06-17T20:05:02.347Z,8.60
2017-06-17T20:07:30.419Z,9.33
2017-06-17T20:09:58.492Z,9.93
2017-06-17T20:12:26.556Z,9.63
2017-06-17T20:14:54.632Z,10.53
2017-06-17T20:17:22.703Z,11.40
2017-06-17T20:19:50.785Z,11.63
2017-06-17T20:22:24.565Z,12.07
2017-06-17T20:24:52.643Z,12.00
2017-06-17T20:27:20.711Z,10.23
2017-06-17T20:29:48.795Z,11.23
2017-06-17T20:32:16.928Z,12.40
2017-06-17T20:34:45.027Z,14.27
2017-06-17T20:37:13.099Z,12.60
2017-06-17T20:39:41.172Z,13.73
2017-06-17T20:42:09.262Z,14.70
2017-06-17T20:44:37.335Z,12.97
2017-06-17T20:47:05.428Z,13.20
2017-06-17T20:49:33.498Z,12.37
2017-06-17T20:52:02.347Z,13.37
2017-06-17T20:54:30.422Z,19.03
2017-06-17T20:56:58.507Z,11.07
2017-06-17T20:59:26.579Z,12.13
2017-06-17T21:01:54.671Z,13.80
2017-06-17T21:04:22.743Z,13.83
2017-06-17T21:06:51.586Z,13.77
2017-06-17T21:09:19.674Z,12.87
2017-06-17T21:11:47.751Z,12.30
2017-06-17T21:14:15.831Z,14.63
2017-06-17T21:16:43.899Z,13.27
2017-06-17T21:19:11.998Z,13.80
2017-06-17T21:21:40.847Z,19.17
2017-06-17T21:24:08.935Z,13.30
2017-06-17T21:26:37.007Z,15.83
2017-06-17T21:29:05.102Z,17.70
2017-06-17T21:31:33.179Z,13.33
2017-06-17T21:34:01.246Z,16.03
2017-06-17T21:36:29.319Z,13.33
2017-06-17T21:38:57.395Z,13.33
2017-06-17T21:41:25.472Z,12.10
2017-06-17T21:43:54.314Z,13.47
2017-06-17T21:46:22.391Z,18.90
2017-06-17T21:48:50.491Z,16.57
2017-06-17T21:51:18.571Z,46.83
2017-06-17T21:53:46.644Z,30.60
2017-06-17T21:56:14.719Z,14.17
2017-06-17T21:58:43.562Z,19.70
2017-06-17T22:01:11.636Z,19.40
2017-06-17T22:03:39.717Z,14.10
2017-06-17T22:06:07.818Z,18.03
2017-06-17T22:08:35.900Z,17.17
2017-06-17T22:11:03.971Z,14.10
2017-06-17T22:13:32.047Z,15.40
2017-06-17T22:16:00.900Z,12.37
2017-06-17T22:18:28.987Z,15.90
2017-06-17T22:20:57.066Z,14.87
2017-06-17T22:23:25.171Z,14.00
2017-06-17T22:25:54.023Z,16.50
2017-06-17T22:28:22.090Z,15.43
2017-06-17T22:30:50.189Z,15.43
2017-06-17T22:33:18.250Z,14.20
2017-06-17T22:35:46.338Z,13.30
2017-06-17T22:38:15.178Z,15.00
2017-06-17T22:40:43.271Z,16.53
2017-06-17T22:43:11.343Z,14.90
2017-06-17T22:45:39.415Z,14.17
2017-06-17T22:48:07.487Z,15.80
2017-06-17T22:50:35.587Z,16.53
2017-06-17T22:53:03.651Z,16.77
2017-06-17T22:55:31.747Z,20.27
2017-06-17T22:58:00.605Z,16.67
2017-06-17T23:00:28.687Z,16.13
2017-06-17T23:02:56.759Z,17.57
2017-06-17T23:05:24.839Z,21.33
2017-06-17T23:07:52.918Z,17.87
2017-06-17T23:10:21.758Z,17.67
2017-06-17T23:12:49.844Z,18.37
2017-06-17T23:15:17.918Z,16.37
2017-06-17T23:17:46.019Z,15.37
2017-06-17T23:20:14.862Z,17.77
2017-06-17T23:22:42.943Z,15.40
2017-06-17T23:25:11.019Z,16.70
2017-06-17T23:27:39.090Z,15.97
2017-06-17T23:30:07.172Z,17.80
2017-06-17T23:32:35.248Z,20.47
2017-06-17T23:35:03.334Z,15.50
2017-06-17T23:37:31.447Z,15.30
2017-06-17T23:39:59.526Z,17.97
2017-06-17T23:42:27.606Z,20.33
2017-06-17T23:44:55.699Z,21.60
2017-06-17T23:47:23.771Z,17.37
2017-06-17T23:49:51.842Z,22.70
2017-06-17T23:52:19.926Z,18.60
2017-06-17T23:54:47.999Z,23.83
2017-06-17T23:57:16.079Z,19.53
2017-06-17T23:59:44.154Z,20.70
